createdAt,value
2022-08-30T00:01:09.175Z,100229.63
2022-08-30T00:03:46.027Z,100229.63
2022-08-30T00:06:15.368Z,100233.88
2022-08-30T00:08:43.360Z,100235.72
2022-08-30T00:11:13.383Z,100242.75
2022-08-30T00:13:43.360Z,100239.34
2022-08-30T00:16:10.852Z,100247.22
2022-08-30T00:18:38.826Z,100253.41
2022-08-30T00:21:06.864Z,100245.53
2022-08-30T00:23:33.983Z,100242.16
2022-08-30T00:26:02.782Z,100240.41
2022-08-30T00:28:30.312Z,100245.78
2022-08-30T00:30:57.496Z,100241.59
2022-08-30T00:33:24.565Z,100244.31
2022-08-30T00:35:51.516Z,100251.28
2022-08-30T00:38:18.503Z,100252.25
2022-08-30T00:40:46.193Z,100248.81
2022-08-30T00:43:30.647Z,100250.72
2022-08-30T00:45:57.964Z,100251.59
2022-08-30T00:48:25.191Z,100250.75
2022-08-30T00:50:56.476Z,100247.44
2022-08-30T00:53:27.453Z,100253.56
2022-08-30T00:55:55.315Z,100259.66
2022-08-30T00:58:26.874Z,100256.19
2022-08-30T01:00:55.549Z,100257.88
2022-08-30T01:03:23.393Z,100247.38
2022-08-30T01:05:51.827Z,100270.19
2022-08-30T01:08:22.146Z,100258.09
2022-08-30T01:10:51.078Z,100254.66
2022-08-30T01:13:18.392Z,100262.50
2022-08-30T01:15:46.326Z,100266.03
2022-08-30T01:18:15.021Z,100263.34
2022-08-30T01:21:06.961Z,100264.31
2022-08-30T01:23:36.755Z,100260.72
2022-08-30T01:26:06.485Z,100263.34
2022-08-30T01:28:34.839Z,100267.69
2022-08-30T01:31:02.052Z,100271.25
2022-08-30T01:33:29.023Z,100258.16
2022-08-30T01:36:02.728Z,100265.13
2022-08-30T01:38:44.033Z,100269.59
2022-08-30T01:41:18.212Z,100265.25
2022-08-30T01:43:45.994Z,100266.16
2022-08-30T01:46:14.770Z,100263.53
2022-08-30T01:48:42.385Z,100266.19
2022-08-30T01:51:18.034Z,100264.41
2022-08-30T01:53:45.778Z,100265.38
2022-08-30T01:56:14.064Z,100272.34
2022-08-30T01:58:41.259Z,100274.91
2022-08-30T02:01:09.527Z,100268.00
2022-08-30T02:03:37.431Z,100268.06
2022-08-30T02:06:10.116Z,100274.25
2022-08-30T02:08:37.976Z,100274.31
2022-08-30T02:11:06.228Z,100266.41
2022-08-30T02:13:33.916Z,100274.38
2022-08-30T02:16:00.876Z,100269.97
2022-08-30T02:18:28.283Z,100270.03
2022-08-30T02:20:55.361Z,100274.44
2022-08-30T02:23:22.304Z,100274.47
2022-08-30T02:25:49.207Z,100276.31
2022-08-30T02:28:16.123Z,100276.31
2022-08-30T02:30:49.039Z,100282.38
2022-08-30T02:33:16.300Z,100283.28
2022-08-30T02:35:43.403Z,100282.44
2022-08-30T02:38:10.796Z,100280.84
2022-08-30T02:40:39.065Z,100278.31
2022-08-30T02:43:06.831Z,100280.22
2022-08-30T02:45:34.060Z,100282.97
2022-08-30T02:48:01.124Z,100282.16
2022-08-30T02:50:28.053Z,100287.41
2022-08-30T02:52:55.378Z,100292.78
2022-08-30T02:55:23.186Z,100289.28
2022-08-30T02:57:50.294Z,100285.81
2022-08-30T03:00:19.310Z,100285.94
2022-08-30T03:02:46.664Z,100288.53
2022-08-30T03:05:15.535Z,100297.28
2022-08-30T03:07:43.463Z,100297.22
2022-08-30T03:10:11.073Z,100295.50
2022-08-30T03:12:41.589Z,100300.78
2022-08-30T03:15:10.636Z,100296.53
2022-08-30T03:17:37.616Z,100294.94
2022-08-30T03:20:05.518Z,100298.53
2022-08-30T03:22:32.727Z,100296.03
2022-08-30T03:25:01.402Z,100297.00
2022-08-30T03:27:29.217Z,100294.44
2022-08-30T03:29:56.665Z,100294.47
2022-08-30T03:32:23.686Z,100296.19
2022-08-30T03:34:50.885Z,100294.53
2022-08-30T03:37:17.984Z,100291.13
2022-08-30T03:39:45.634Z,100291.06
2022-08-30T03:42:12.786Z,100290.22
2022-08-30T03:44:39.966Z,100289.34
2022-08-30T03:47:08.622Z,100294.59
2022-08-30T03:49:35.665Z,100295.47
2022-08-30T03:52:03.360Z,100302.53
2022-08-30T03:54:30.737Z,100304.28
2022-08-30T03:56:57.989Z,100294.66
2022-08-30T03:59:24.924Z,100306.91
2022-08-30T04:01:52.023Z,100298.19
2022-08-30T04:04:21.097Z,100302.78
2022-08-30T04:06:49.138Z,100306.34
2022-08-30T04:09:16.588Z,100302.84
2022-08-30T04:11:43.664Z,100313.34
2022-08-30T04:14:10.898Z,100304.56
2022-08-30T04:16:37.889Z,100312.50
2022-08-30T04:19:05.555Z,100317.69
2022-08-30T04:21:32.574Z,100314.09
2022-08-30T04:24:02.186Z,100321.88
2022-08-30T04:26:29.181Z,100321.78
2022-08-30T04:28:56.835Z,100319.13
2022-08-30T04:31:24.233Z,100330.44
2022-08-30T04:33:51.224Z,100335.66
2022-08-30T04:36:18.366Z,100340.91
2022-08-30T04:38:45.244Z,100341.75
2022-08-30T04:41:16.453Z,100348.72
2022-08-30T04:43:45.551Z,100343.47
2022-08-30T04:46:16.668Z,100342.56
2022-08-30T04:48:44.046Z,100333.81
2022-08-30T04:51:14.131Z,100339.06
2022-08-30T04:53:45.011Z,100340.72
2022-08-30T04:56:18.207Z,100347.69
2022-08-30T04:58:46.599Z,100348.59
2022-08-30T05:01:20.424Z,100352.94
2022-08-30T05:03:52.256Z,100343.25
2022-08-30T05:06:19.776Z,100351.94
2022-08-30T05:08:47.044Z,100355.34
2022-08-30T05:11:16.214Z,100355.34
2022-08-30T05:13:44.206Z,100358.66
2022-08-30T05:16:13.573Z,100358.56
2022-08-30T05:18:40.686Z,100368.09
2022-08-30T05:21:12.157Z,100369.81
2022-08-30T05:23:40.336Z,100367.94
2022-08-30T05:26:10.000Z,100364.31
2022-08-30T05:28:37.169Z,100366.78
2022-08-30T05:31:14.255Z,100371.91
2022-08-30T05:33:42.030Z,100366.53
2022-08-30T05:36:10.097Z,100376.03
2022-08-30T05:38:37.307Z,100379.44
2022-08-30T05:41:10.629Z,100374.13
2022-08-30T05:43:38.565Z,100377.50
2022-08-30T05:46:08.741Z,100380.06
2022-08-30T05:48:38.730Z,100377.38
2022-08-30T05:51:13.858Z,100380.69
2022-08-30T05:53:41.567Z,100384.00
2022-08-30T05:56:11.608Z,100370.84
2022-08-30T05:58:38.771Z,100366.25
2022-08-30T06:01:06.552Z,100381.91
2022-08-30T06:03:33.567Z,100380.00
2022-08-30T06:06:01.055Z,100381.66
2022-08-30T06:08:28.125Z,100388.44
2022-08-30T06:10:55.257Z,100381.28
2022-08-30T06:13:22.501Z,100382.94
2022-08-30T06:15:51.142Z,100384.56
2022-08-30T06:18:18.835Z,100381.88
2022-08-30T06:20:55.301Z,100393.19
2022-08-30T06:23:22.857Z,100395.69
2022-08-30T06:25:49.848Z,100394.66
2022-08-30T06:28:17.239Z,100397.03
2022-08-30T06:30:44.317Z,100401.97
2022-08-30T06:33:11.420Z,100393.75
2022-08-30T06:35:56.706Z,100405.72
2022-08-30T06:38:25.690Z,100397.75
2022-08-30T06:40:52.697Z,100409.25
2022-08-30T06:43:19.784Z,100412.91
2022-08-30T06:45:46.842Z,100418.16
2022-08-30T06:48:13.753Z,100412.84
2022-08-30T06:50:42.243Z,100406.63
2022-08-30T06:53:09.671Z,100415.47
2022-08-30T06:55:37.452Z,100402.16
2022-08-30T06:58:04.853Z,100411.53
2022-08-30T07:00:31.841Z,100415.06
2022-08-30T07:02:59.237Z,100416.91
2022-08-30T07:05:26.242Z,100413.63
2022-08-30T07:07:56.241Z,100412.09
2022-08-30T07:10:23.203Z,100424.44
2022-08-30T07:12:50.371Z,100427.34
2022-08-30T07:15:20.567Z,100440.88
2022-08-30T07:18:06.302Z,100442.94
2022-08-30T07:20:40.548Z,100443.19
2022-08-30T07:23:09.333Z,100445.81
2022-08-30T07:25:40.233Z,100447.59
2022-08-30T07:28:08.282Z,100448.38
2022-08-30T07:30:36.003Z,100443.06
2022-08-30T07:33:03.189Z,100445.56
2022-08-30T07:35:30.272Z,100452.59
2022-08-30T07:37:58.531Z,100462.19
2022-08-30T07:40:26.344Z,100453.41
2022-08-30T07:42:53.640Z,100456.78
2022-08-30T07:45:20.973Z,100457.44
2022-08-30T07:47:48.024Z,100460.88
2022-08-30T07:50:15.161Z,100454.56
2022-08-30T07:52:42.064Z,100457.00
2022-08-30T07:55:10.148Z,100464.03
2022-08-30T07:57:37.194Z,100462.25
2022-08-30T08:00:05.503Z,100466.50
2022-08-30T08:02:40.899Z,100466.59
2022-08-30T08:05:10.269Z,100459.66
2022-08-30T08:07:39.337Z,100478.19
2022-08-30T08:10:06.975Z,100472.72
2022-08-30T08:12:35.015Z,100474.13
2022-08-30T08:15:05.418Z,100467.00
2022-08-30T08:17:35.814Z,100478.34
2022-08-30T08:20:03.960Z,100478.25
2022-08-30T08:22:31.049Z,100485.38
2022-08-30T08:24:58.041Z,100476.69
2022-08-30T08:27:25.186Z,100488.94
2022-08-30T08:29:52.117Z,100481.22
2022-08-30T08:32:19.134Z,100495.38
2022-08-30T08:34:46.273Z,100493.66
2022-08-30T08:37:13.236Z,100491.13
2022-08-30T08:39:40.207Z,100497.53
2022-08-30T08:42:25.621Z,100495.91
2022-08-30T08:45:03.786Z,100507.28
2022-08-30T08:47:57.972Z,100504.97
2022-08-30T08:50:29.002Z,100515.88
2022-08-30T08:53:45.578Z,100510.91
2022-08-30T08:56:15.174Z,100522.78
2022-08-30T08:58:45.442Z,100514.31
2022-08-30T09:01:14.154Z,100516.34
2022-08-30T09:03:41.988Z,100515.47
2022-08-30T09:06:32.957Z,100518.97
2022-08-30T09:09:00.078Z,100518.09
2022-08-30T09:11:30.438Z,100522.31
2022-08-30T09:13:57.435Z,100513.22
2022-08-30T09:17:03.254Z,100520.72
2022-08-30T09:19:35.815Z,100518.72
2022-08-30T09:22:13.038Z,100521.13
2022-08-30T09:24:48.954Z,100520.94
2022-08-30T09:27:22.164Z,100516.47
2022-08-30T09:30:04.523Z,100529.44
2022-08-30T09:32:38.991Z,100525.78
2022-08-30T09:35:10.393Z,100532.81
2022-08-30T09:37:45.894Z,100531.78
2022-08-30T09:40:17.353Z,100532.63
2022-08-30T09:43:19.378Z,100534.66
2022-08-30T09:45:50.300Z,100525.38
2022-08-30T09:48:45.152Z,100528.44
2022-08-30T09:51:12.574Z,100535.63
2022-08-30T09:57:13.298Z,100525.91
2022-08-30T09:59:58.232Z,100526.69
2022-08-30T10:02:43.923Z,100528.31
2022-08-30T10:05:13.853Z,100522.13
2022-08-30T10:08:12.759Z,100535.91
2022-08-30T10:11:25.080Z,100537.41
2022-08-30T10:14:23.875Z,100532.69
2022-08-30T10:17:09.921Z,100531.63
2022-08-30T10:19:43.002Z,100538.31
2022-08-30T10:22:25.023Z,100549.44
2022-08-30T10:24:53.142Z,100545.50
2022-08-30T10:27:21.269Z,100547.03
2022-08-30T10:29:55.351Z,100550.38
2022-08-30T10:32:27.061Z,100550.03
2022-08-30T10:35:00.523Z,100544.44
2022-08-30T10:37:30.414Z,100549.56
2022-08-30T10:40:21.194Z,100562.50
2022-08-30T10:42:49.772Z,100556.88
2022-08-30T10:45:17.362Z,100558.44
2022-08-30T10:48:07.395Z,100548.06
2022-08-30T10:50:53.756Z,100558.81
2022-08-30T10:53:47.193Z,100567.84
2022-08-30T10:56:21.343Z,100563.59
2022-08-30T10:58:49.132Z,100561.03
2022-08-30T11:01:46.285Z,100558.41
2022-08-30T11:04:45.408Z,100565.16
2022-08-30T11:07:15.623Z,100566.72
2022-08-30T11:09:58.182Z,100571.06
2022-08-30T11:12:52.193Z,100571.63
2022-08-30T11:15:25.848Z,100572.97
2022-08-30T11:18:03.932Z,100570.50
2022-08-30T11:20:50.892Z,100575.84
2022-08-30T11:23:36.591Z,100577.78
2022-08-30T11:26:03.551Z,100579.69
2022-08-30T11:28:36.491Z,100579.03
2022-08-30T11:31:15.849Z,100568.75
2022-08-30T11:33:51.532Z,100587.00
2022-08-30T11:36:37.697Z,100581.47
2022-08-30T11:39:14.157Z,100583.19
2022-08-30T11:41:47.950Z,100579.56
2022-08-30T11:44:28.718Z,100582.97
2022-08-30T11:46:59.044Z,100582.97
2022-08-30T11:49:46.088Z,100568.63
2022-08-30T11:52:54.927Z,100566.16
2022-08-30T11:55:45.461Z,100566.44
2022-08-30T11:58:31.053Z,100572.91
2022-08-30T12:01:51.083Z,100573.84
2022-08-30T12:04:17.190Z,100569.88
2022-08-30T12:07:04.230Z,100577.31
2022-08-30T12:09:33.130Z,100570.19
2022-08-30T12:12:02.752Z,100578.94
2022-08-30T12:14:54.684Z,100585.09
2022-08-30T12:17:46.272Z,100583.38
2022-08-30T12:20:39.223Z,100589.31
2022-08-30T12:23:33.346Z,100581.16
2022-08-30T12:26:38.539Z,100574.47
2022-08-30T12:29:18.361Z,100568.47
2022-08-30T12:32:08.301Z,100578.72
2022-08-30T12:34:38.527Z,100578.78
2022-08-30T12:37:10.863Z,100578.88
2022-08-30T12:39:39.029Z,100579.56
2022-08-30T12:42:27.157Z,100576.31
2022-08-30T12:44:57.953Z,100569.09
2022-08-30T12:47:33.441Z,100576.13
2022-08-30T12:50:01.794Z,100577.00
2022-08-30T12:52:37.712Z,100573.75
2022-08-30T12:55:24.221Z,100566.19
2022-08-30T12:58:00.745Z,100568.06
2022-08-30T13:00:28.121Z,100569.97
2022-08-30T13:02:58.244Z,100576.28
2022-08-30T13:05:48.336Z,100567.56
2022-08-30T13:08:36.819Z,100570.06
2022-08-30T13:11:08.555Z,100566.81
2022-08-30T13:13:51.995Z,100575.00
2022-08-30T13:16:23.063Z,100574.38
2022-08-30T13:18:55.651Z,100575.09
2022-08-30T13:21:34.974Z,100575.88
2022-08-30T13:24:04.885Z,100573.81
2022-08-30T13:26:35.495Z,100566.38
2022-08-30T13:29:05.611Z,100581.97
2022-08-30T13:31:37.603Z,100570.41
2022-08-30T13:34:05.247Z,100580.94
2022-08-30T13:36:36.709Z,100572.56
2022-08-30T13:39:04.892Z,100567.06
2022-08-30T13:41:34.216Z,100568.16
2022-08-30T13:44:20.255Z,100565.66
2022-08-30T13:46:55.302Z,100570.25
2022-08-30T13:49:45.478Z,100567.78
2022-08-30T13:52:21.785Z,100566.59
2022-08-30T13:54:53.730Z,100575.66
2022-08-30T14:00:15.182Z,100568.16
2022-08-30T14:02:47.603Z,100564.66
2022-08-30T14:05:46.734Z,100562.88
2022-08-30T14:08:05.141Z,100574.84
2022-08-30T14:10:37.721Z,100577.50
2022-08-30T14:13:12.887Z,100569.56
2022-08-30T14:15:41.564Z,100564.50
2022-08-30T14:18:08.887Z,100567.22
2022-08-30T14:20:38.578Z,100562.97
2022-08-30T14:23:07.643Z,100569.63
2022-08-30T14:25:37.854Z,100562.84
2022-08-30T14:28:09.637Z,100565.31
2022-08-30T14:30:38.911Z,100570.16
2022-08-30T14:33:06.422Z,100568.66
2022-08-30T14:35:33.821Z,100563.25
2022-08-30T14:38:00.762Z,100570.38
2022-08-30T14:40:27.932Z,100572.03
2022-08-30T14:42:55.126Z,100574.81
2022-08-30T14:45:22.363Z,100574.00
2022-08-30T14:47:49.943Z,100574.13
2022-08-30T14:50:17.165Z,100571.72
2022-08-30T14:52:45.368Z,100571.28
2022-08-30T14:55:13.285Z,100580.81
2022-08-30T14:57:40.588Z,100578.97
2022-08-30T15:00:11.647Z,100575.72
2022-08-30T15:02:38.595Z,100574.16
2022-08-30T15:05:08.380Z,100584.50
2022-08-30T15:07:35.809Z,100581.13
2022-08-30T15:10:03.676Z,100580.84
2022-08-30T15:12:30.604Z,100586.84
2022-08-30T15:14:57.604Z,100584.44
2022-08-30T15:17:24.652Z,100585.88
2022-08-30T15:19:51.666Z,100590.81
2022-08-30T15:22:18.806Z,100594.75
2022-08-30T15:24:46.646Z,100583.50
2022-08-30T15:27:16.331Z,100589.50
2022-08-30T15:29:43.144Z,100588.72
2022-08-30T15:32:09.997Z,100590.59
2022-08-30T15:34:36.961Z,100586.38
2022-08-30T15:37:05.155Z,100587.38
2022-08-30T15:39:34.794Z,100593.72
2022-08-30T15:42:02.016Z,100600.09
2022-08-30T15:44:32.309Z,100586.31
2022-08-30T15:47:01.797Z,100590.81
2022-08-30T15:49:28.986Z,100586.59
2022-08-30T15:52:00.828Z,100592.09
2022-08-30T15:54:28.974Z,100579.91
2022-08-30T15:56:59.729Z,100575.66
2022-08-30T15:59:28.225Z,100576.63
2022-08-30T16:01:55.273Z,100574.16
2022-08-30T16:04:24.298Z,100570.78
2022-08-30T16:06:52.956Z,100574.34
2022-08-30T16:09:20.023Z,100567.38
2022-08-30T16:11:46.961Z,100569.88
2022-08-30T16:14:14.173Z,100561.09
2022-08-30T16:16:41.983Z,100563.38
2022-08-30T16:19:09.432Z,100566.53
2022-08-30T16:21:37.114Z,100561.88
2022-08-30T16:24:05.888Z,100566.88
2022-08-30T16:26:34.923Z,100563.16
2022-08-30T16:29:03.952Z,100561.50
2022-08-30T16:31:32.073Z,100552.94
2022-08-30T16:34:02.823Z,100564.56
2022-08-30T16:36:32.106Z,100571.84
2022-08-30T16:38:59.579Z,100570.34
2022-08-30T16:41:26.689Z,100565.44
2022-08-30T16:43:54.240Z,100570.19
2022-08-30T16:46:27.398Z,100567.88
2022-08-30T16:48:57.543Z,100568.94
2022-08-30T16:51:26.796Z,100569.09
2022-08-30T16:53:58.633Z,100569.22
2022-08-30T16:56:27.492Z,100565.72
2022-08-30T16:59:01.192Z,100579.81
2022-08-30T17:01:34.804Z,100573.81
2022-08-30T17:04:02.790Z,100572.94
2022-08-30T17:06:30.070Z,100567.75
2022-08-30T17:08:57.174Z,100569.66
2022-08-30T17:11:24.769Z,100569.94
2022-08-30T17:13:52.316Z,100576.22
2022-08-30T17:16:22.770Z,100576.47
2022-08-30T17:18:56.288Z,100585.47
2022-08-30T17:21:27.395Z,100583.03
2022-08-30T17:23:54.329Z,100579.66
2022-08-30T17:26:28.446Z,100580.75
2022-08-30T17:28:55.413Z,100592.25
2022-08-30T17:31:23.111Z,100581.06
2022-08-30T17:33:50.645Z,100585.63
2022-08-30T17:36:17.556Z,100591.00
2022-08-30T17:38:45.200Z,100595.59
2022-08-30T17:41:13.341Z,100587.81
2022-08-30T17:43:40.423Z,100591.41
2022-08-30T17:46:10.218Z,100593.22
2022-08-30T17:48:37.994Z,100602.06
2022-08-30T17:51:05.984Z,100593.38
2022-08-30T17:53:34.064Z,100609.25
2022-08-30T17:56:01.204Z,100611.16
2022-08-30T17:58:28.095Z,100611.25
2022-08-30T18:01:14.896Z,100607.09
2022-08-30T18:03:45.415Z,100610.72
2022-08-30T18:06:13.626Z,100610.00
2022-08-30T18:08:41.505Z,100618.84
2022-08-30T18:11:08.847Z,100618.16
2022-08-30T18:13:36.062Z,100622.66
2022-08-30T18:16:04.338Z,100626.28
2022-08-30T18:18:32.687Z,100631.66
2022-08-30T18:20:59.959Z,100637.94
2022-08-30T18:23:27.239Z,100632.00
2022-08-30T18:26:01.435Z,100640.00
2022-08-30T18:28:29.322Z,100643.63
2022-08-30T18:30:59.236Z,100640.28
2022-08-30T18:33:27.476Z,100650.88
2022-08-30T18:35:55.851Z,100654.38
2022-08-30T18:38:24.475Z,100652.75
2022-08-30T18:40:53.240Z,100660.72
2022-08-30T18:43:22.939Z,100654.59
2022-08-30T18:45:57.378Z,100660.81
2022-08-30T18:48:24.256Z,100657.34
2022-08-30T18:50:55.343Z,100656.56
2022-08-30T18:53:28.309Z,100649.66
2022-08-30T18:55:56.267Z,100650.59
2022-08-30T18:58:23.197Z,100646.28
2022-08-30T19:00:50.826Z,100654.19
2022-08-30T19:03:18.946Z,100651.66
2022-08-30T19:05:46.378Z,100650.88
2022-08-30T19:08:13.866Z,100649.19
2022-08-30T19:10:41.610Z,100653.53
2022-08-30T19:13:10.259Z,100663.16
2022-08-30T19:15:38.882Z,100660.56
2022-08-30T19:18:12.902Z,100660.63
2022-08-30T19:20:44.819Z,100662.28
2022-08-30T19:23:12.768Z,100658.78
2022-08-30T19:25:40.991Z,100654.41
2022-08-30T19:28:08.807Z,100657.88
2022-08-30T19:30:36.966Z,100660.47
2022-08-30T19:33:05.789Z,100650.88
2022-08-30T19:35:33.506Z,100660.53
2022-08-30T19:38:00.560Z,100652.66
2022-08-30T19:40:28.690Z,100656.19
2022-08-30T19:42:55.987Z,100654.47
2022-08-30T19:45:23.211Z,100656.19
2022-08-30T19:47:51.532Z,100650.13
2022-08-30T19:50:18.881Z,100650.16
2022-08-30T19:52:52.682Z,100652.84
2022-08-30T19:55:28.099Z,100654.63
2022-08-30T19:57:56.395Z,100653.78
2022-08-30T20:00:23.807Z,100661.69
2022-08-30T20:02:52.002Z,100667.88
2022-08-30T20:05:21.428Z,100660.91
2022-08-30T20:07:51.104Z,100663.56
2022-08-30T20:10:20.722Z,100666.31
2022-08-30T20:12:52.938Z,100666.31
2022-08-30T20:15:20.649Z,100665.50
2022-08-30T20:18:05.129Z,100664.66
2022-08-30T20:20:36.305Z,100663.78
2022-08-30T20:23:05.067Z,100662.88
2022-08-30T20:25:32.503Z,100662.94
2022-08-30T20:28:01.500Z,100662.03
2022-08-30T20:30:28.454Z,100664.66
2022-08-30T20:32:56.530Z,100667.28
2022-08-30T20:35:24.249Z,100664.56
2022-08-30T20:37:51.452Z,100668.06
2022-08-30T20:40:19.061Z,100665.38
2022-08-30T20:42:46.726Z,100668.81
2022-08-30T20:45:16.273Z,100672.25
2022-08-30T20:47:43.520Z,100666.09
2022-08-30T20:50:13.637Z,100666.00
2022-08-30T20:52:41.706Z,100655.47
2022-08-30T20:55:10.226Z,100657.16
2022-08-30T20:57:37.507Z,100652.75
2022-08-30T21:00:11.071Z,100656.19
2022-08-30T21:02:46.674Z,100655.28
2022-08-30T21:05:16.306Z,100659.59
2022-08-30T21:07:45.656Z,100658.69
2022-08-30T21:10:13.381Z,100661.31
2022-08-30T21:12:40.353Z,100658.63
2022-08-30T21:15:34.138Z,100649.84
2022-08-30T21:17:55.346Z,100652.47
2022-08-30T21:20:22.850Z,100656.78
2022-08-30T21:22:49.976Z,100664.63
2022-08-30T21:25:17.198Z,100658.50
2022-08-30T21:27:44.424Z,100653.25
2022-08-30T21:30:13.332Z,100664.56
2022-08-30T21:32:41.096Z,100661.00
2022-08-30T21:35:27.559Z,100664.50
2022-08-30T21:37:55.435Z,100656.53
2022-08-30T21:40:22.657Z,100662.56
2022-08-30T21:42:49.710Z,100662.53
2022-08-30T21:45:16.704Z,100658.94
2022-08-30T21:47:43.982Z,100657.97
2022-08-30T21:50:11.629Z,100653.53
2022-08-30T21:52:38.685Z,100654.31
2022-08-30T21:55:06.433Z,100655.97
2022-08-30T21:57:33.440Z,100659.47
2022-08-30T22:00:00.410Z,100651.56
2022-08-30T22:02:28.841Z,100657.66
2022-08-30T22:04:56.156Z,100661.19
2022-08-30T22:07:23.055Z,100653.34
2022-08-30T22:09:50.140Z,100644.63
2022-08-30T22:12:17.550Z,100655.16
2022-08-30T22:14:44.544Z,100655.25
2022-08-30T22:17:11.569Z,100661.44
2022-08-30T22:19:38.587Z,100663.25
2022-08-30T22:22:06.016Z,100661.56
2022-08-30T22:24:33.307Z,100660.72
2022-08-30T22:27:05.082Z,100660.75
2022-08-30T22:29:32.756Z,100657.31
2022-08-30T22:32:01.219Z,100663.47
2022-08-30T22:34:28.336Z,100661.78
2022-08-30T22:36:55.536Z,100660.97
2022-08-30T22:39:22.477Z,100654.03
2022-08-30T22:41:50.382Z,100663.72
2022-08-30T22:44:17.485Z,100666.38
2022-08-30T22:46:45.107Z,100661.16
2022-08-30T22:49:12.545Z,100667.28
2022-08-30T22:51:41.087Z,100663.78
2022-08-30T22:54:09.945Z,100664.75
2022-08-30T22:56:38.296Z,100666.50
2022-08-30T22:59:06.322Z,100666.44
2022-08-30T23:01:39.752Z,100676.09
2022-08-30T23:04:08.082Z,100669.06
2022-08-30T23:06:35.573Z,100674.31
2022-08-30T23:09:03.650Z,100668.22
2022-08-30T23:11:30.603Z,100674.41
2022-08-30T23:14:00.466Z,100667.44
2022-08-30T23:16:27.458Z,100675.31
2022-08-30T23:18:54.507Z,100672.69
2022-08-30T23:21:24.609Z,100674.47
2022-08-30T23:24:11.728Z,100680.53
2022-08-30T23:26:58.447Z,100682.22
2022-08-30T23:29:44.556Z,100681.38
2022-08-30T23:32:30.557Z,100678.72
2022-08-30T23:35:16.306Z,100684.81
2022-08-30T23:38:01.953Z,100676.88
2022-08-30T23:40:47.690Z,100679.41
2022-08-30T23:43:33.115Z,100675.84
2022-08-30T23:46:19.732Z,100680.16
2022-08-30T23:49:09.000Z,100683.63
2022-08-30T23:51:56.135Z,100672.19
2022-08-30T23:54:42.637Z,100674.78
2022-08-30T23:57:28.505Z,100680.91
